Glorieta, NM (87535)

12:33 AM MDT on October 22, 2014 (GMT -0600)
Dos Griegos | Change Station
CLOSE
Current Station
Personal Weather Station
Location: Santa Fe, NM
Elevation: 7087 ft
Nearby Weather Stations

Elev 7087 ft 35.55 °N, 105.89 °W | Updated 24 seconds ago

Overcast
Overcast
50.7 °F
Feels Like 50.7 °F
N
0.0
Wind Variable Wind from SSW
Gusts 0.0 mph

Today
High -- | Low -- °F
--% Chance of Precip.
Yesterday
High -- | Low -- °F
Precip. -- in
7:15 AM 6:18 PM
Waning Crescent, 3% visible
Pressure 29.95 in
Visibility 10.0 miles
Clouds Few 4400 ft
Scattered Clouds 8500 ft
Mostly Cloudy 11000 ft
Dew Point 47 °F
Humidity 86%
Rainfall 0.00 in
Snow Depth Not available.
UV 0.0 out of 12
Pollen 3.40 out of 12
Air Quality Not available.
Flu Activity Sporadic
METAR KSAF 220553Z AUTO 14006KT 10SM FEW044 SCT085 BKN110 12/09 A3015 RMK AO2 SLP140 T01170089 10161 20111 50005

More Conditions Fewer Conditions

Pressure 29.95 in
Visibility 10.0 miles
Clouds Few 4400 ft
Scattered Clouds 8500 ft
Mostly Cloudy 11000 ft
Dew Point 47 °F
Humidity 86%
Rainfall 0.00 in
Snow Depth Not available.
UV 0.0 out of 12
Pollen 3.40 out of 12
Air Quality Not available.
Flu Activity Sporadic
METAR KSAF 220553Z AUTO 14006KT 10SM FEW044 SCT085 BKN110 12/09 A3015 RMK AO2 SLP140 T01170089 10161 20111 50005

More Conditions Fewer Conditions

Nowcast | as of 11:40 PM MDT on October 21, 2014

Isolated light rain showers...and perhaps a rumble of thunder...will continue to impact north central and western New Mexico through the early morning hours. Additional rainfall amounts will generally be one tenth of an inch or less. Areas that may be impacted include El Vado...Chama...Grants...Acoma Pueblo and Alamo.

×

10-Day Weather Forecast

Almanac

Astronomy

Oct. 22, 2014 Rise Set
Actual Time 7:15 AM MDT 6:18 PM MDT
Civil Twilight 6:49 AM MDT 6:44 PM MDT
Nautical Twilight 6:20 AM MDT 7:14 PM MDT
Astronomical Twilight 5:50 AM MDT 7:44 PM MDT
Moon 6:02 AM MDT 5:45 PM MDT
Length of Visible Light 11h 54m
Length of Day
11h 03m
Tomorrow will be 2m 5s shorter.
Waning Crescent, 3% of the Moon is Illuminated
Today
Waning Crescent
Oct 23
New
Oct 30
First Quarter
Nov 6
Full
Nov 14
Last Quarter

Today's Extremes

State Highs State Lows

Community

WunderPhotos

Upload Photos

1,763,884 photos uploaded!

Nearby

Snow Depth

Station Depth Elevation
Santa Fe 0 in 11445 ft
Elk Cabin 1 in 8210 ft
Wesner Springs 3 in 11120 ft
Quemazon 1 in 9500 ft
Gallegos Peak 0 in 9800 ft

Earthquake Activity

City Distance Mag. Time & Date
Trinidad, Colorado 114 miles 2.7 10:33 PM MDT
2014-10-20
Trinidad, Colorado 124 miles 2.5 10:01 PM MDT
2014-10-19
Minimum magnitude displayed is 2.5.

Coastal Water Temperatures

Place Temperature
No Stations Reporting

Nearby Weather Stations